createdAt,value
2018-10-01T00:00:00.783Z,18.50
2018-10-01T00:02:29.405Z,19.70
2018-10-01T00:04:57.968Z,18.70
2018-10-01T00:07:26.638Z,20.10
2018-10-01T00:09:55.305Z,20.40
2018-10-01T00:12:24.726Z,20.03
2018-10-01T00:14:53.288Z,20.23
2018-10-01T00:17:24.880Z,20.67
2018-10-01T00:19:58.829Z,19.83
2018-10-01T00:22:32.721Z,20.27
2018-10-01T00:25:01.416Z,19.53
2018-10-01T00:27:30.103Z,21.27
2018-10-01T00:29:58.630Z,21.23
2018-10-01T00:32:27.141Z,21.70
2018-10-01T00:34:55.718Z,20.90
2018-10-01T00:37:24.418Z,20.57
2018-10-01T00:39:52.969Z,21.07
2018-10-01T00:42:21.598Z,20.03
2018-10-01T00:44:50.294Z,20.63
2018-10-01T00:47:19.054Z,19.73
2018-10-01T00:49:47.733Z,19.23
2018-10-01T00:52:16.222Z,21.07
2018-10-01T00:54:44.782Z,20.23
2018-10-01T00:57:13.295Z,19.57
2018-10-01T00:59:41.837Z,20.83
2018-10-01T01:02:10.333Z,21.07
2018-10-01T01:04:38.832Z,20.03
2018-10-01T01:07:07.434Z,19.53
2018-10-01T01:09:36.135Z,19.60
2018-10-01T01:12:05.026Z,19.40
2018-10-01T01:14:33.485Z,20.20
2018-10-01T01:17:02.036Z,20.03
2018-10-01T01:19:30.585Z,19.53
2018-10-01T01:21:59.124Z,18.90
2018-10-01T01:24:27.757Z,19.37
2018-10-01T01:26:56.244Z,19.93
2018-10-01T01:29:25.075Z,20.20
2018-10-01T01:31:53.564Z,20.50
2018-10-01T01:34:22.142Z,20.10
2018-10-01T01:36:50.623Z,19.77
2018-10-01T01:39:19.064Z,20.23
2018-10-01T01:41:47.616Z,20.30
2018-10-01T01:44:16.118Z,21.30
2018-10-01T01:46:44.919Z,20.10
2018-10-01T01:49:13.428Z,20.90
2018-10-01T01:51:42.127Z,19.83
2018-10-01T01:54:10.665Z,19.63
2018-10-01T01:56:39.160Z,18.43
2018-10-01T01:59:07.780Z,18.87
2018-10-01T02:01:36.344Z,19.13
2018-10-01T02:04:04.968Z,18.30
2018-10-01T02:06:33.481Z,18.90
2018-10-01T02:09:01.962Z,19.93
2018-10-01T02:11:30.442Z,18.90
2018-10-01T02:13:58.888Z,19.23
2018-10-01T02:16:27.374Z,19.80
2018-10-01T02:18:55.946Z,19.37
2018-10-01T02:21:24.471Z,19.50
2018-10-01T02:23:52.926Z,18.07
2018-10-01T02:26:21.405Z,19.07
2018-10-01T02:28:49.902Z,18.93
2018-10-01T02:31:18.402Z,19.10
2018-10-01T02:33:46.920Z,19.30
2018-10-01T02:36:15.424Z,20.53
2018-10-01T02:38:43.932Z,21.40
2018-10-01T02:41:12.461Z,20.97
2018-10-01T02:43:41.146Z,20.83
2018-10-01T02:46:09.669Z,21.60
2018-10-01T02:48:38.192Z,22.80
2018-10-01T02:51:06.973Z,23.63
2018-10-01T02:53:40.731Z,19.40
2018-10-01T02:56:10.264Z,21.73
2018-10-01T02:58:38.847Z,20.17
2018-10-01T03:01:07.305Z,21.40
2018-10-01T03:03:35.884Z,20.53
2018-10-01T03:06:04.417Z,21.60
2018-10-01T03:08:32.888Z,21.40
2018-10-01T03:11:01.349Z,22.77
2018-10-01T03:13:29.944Z,23.33
2018-10-01T03:15:58.402Z,23.43
2018-10-01T03:18:26.895Z,23.07
2018-10-01T03:20:55.384Z,22.43
2018-10-01T03:23:23.988Z,24.27
2018-10-01T03:25:52.506Z,21.90
2018-10-01T03:28:21.045Z,24.50
2018-10-01T03:30:49.509Z,26.10
2018-10-01T03:33:18.108Z,33.50
2018-10-01T03:35:46.561Z,25.57
2018-10-01T03:38:15.122Z,25.23
2018-10-01T03:40:43.642Z,25.30
2018-10-01T03:43:12.451Z,25.67
2018-10-01T03:45:40.879Z,24.57
2018-10-01T03:48:09.332Z,23.83
2018-10-01T03:50:37.788Z,23.77
2018-10-01T03:53:06.301Z,27.87
2018-10-01T03:55:34.761Z,26.40
2018-10-01T03:58:03.353Z,27.07
2018-10-01T04:00:31.867Z,31.60
2018-10-01T04:03:00.427Z,27.37
2018-10-01T04:05:28.803Z,28.67
2018-10-01T04:07:57.285Z,27.97
2018-10-01T04:10:25.943Z,27.80
2018-10-01T04:12:54.411Z,29.10
2018-10-01T04:15:22.954Z,27.53
2018-10-01T04:17:52.436Z,27.33
2018-10-01T04:20:20.877Z,28.47
2018-10-01T04:22:49.407Z,30.87
2018-10-01T04:25:17.945Z,31.07
2018-10-01T04:27:46.466Z,29.63
2018-10-01T04:30:15.222Z,29.67
2018-10-01T04:32:43.671Z,30.53
2018-10-01T04:35:12.166Z,29.07
2018-10-01T04:37:40.626Z,28.60
2018-10-01T04:40:09.352Z,30.93
2018-10-01T04:42:37.864Z,31.20
2018-10-01T04:45:06.442Z,31.77
2018-10-01T04:47:34.908Z,30.60
2018-10-01T04:50:03.456Z,30.23
2018-10-01T04:52:32.174Z,31.13
2018-10-01T04:55:00.902Z,33.87
2018-10-01T04:57:29.499Z,32.90
2018-10-01T04:59:58.129Z,31.83
2018-10-01T05:02:26.657Z,35.60
2018-10-01T05:04:55.157Z,33.97
2018-10-01T05:07:23.701Z,33.87
2018-10-01T05:09:57.937Z,35.60
2018-10-01T05:12:26.387Z,34.83
2018-10-01T05:14:54.895Z,35.87
2018-10-01T05:17:23.431Z,35.97
2018-10-01T05:19:51.920Z,35.60
2018-10-01T05:22:20.509Z,34.30
2018-10-01T05:24:49.279Z,35.13
2018-10-01T05:27:17.804Z,35.07
2018-10-01T05:29:46.430Z,35.53
2018-10-01T05:32:15.026Z,36.33
2018-10-01T05:34:43.587Z,36.20
2018-10-01T05:37:12.041Z,36.80
2018-10-01T05:39:40.690Z,37.23
2018-10-01T05:42:09.260Z,37.67
2018-10-01T05:44:37.975Z,39.10
2018-10-01T05:47:06.644Z,38.13
2018-10-01T05:49:35.275Z,37.77
2018-10-01T05:52:03.835Z,39.07
2018-10-01T05:54:32.438Z,38.30
2018-10-01T05:57:00.971Z,37.80
2018-10-01T05:59:29.498Z,37.43
2018-10-01T06:01:58.105Z,37.10
2018-10-01T06:04:26.620Z,36.23
2018-10-01T06:06:55.112Z,36.83
2018-10-01T06:09:23.782Z,37.93
2018-10-01T06:11:52.378Z,36.77
2018-10-01T06:14:20.997Z,38.97
2018-10-01T06:16:49.793Z,37.00
2018-10-01T06:19:18.419Z,35.83
2018-10-01T06:21:47.223Z,36.97
2018-10-01T06:24:15.790Z,35.33
2018-10-01T06:26:44.471Z,36.90
2018-10-01T06:29:13.441Z,35.73
2018-10-01T06:31:42.003Z,34.33
2018-10-01T06:34:10.547Z,32.53
2018-10-01T06:36:39.021Z,31.00
2018-10-01T06:39:09.341Z,32.77
2018-10-01T06:41:38.125Z,31.50
2018-10-01T06:44:06.827Z,30.63
2018-10-01T06:46:35.380Z,30.13
2018-10-01T06:49:03.983Z,30.80
2018-10-01T06:51:32.685Z,30.37
2018-10-01T06:54:01.419Z,29.10
2018-10-01T06:56:29.931Z,30.40
2018-10-01T06:58:58.540Z,29.90
2018-10-01T07:01:27.168Z,29.27
2018-10-01T07:03:55.721Z,26.57
2018-10-01T07:06:24.250Z,27.27
2018-10-01T07:08:52.913Z,29.53
2018-10-01T07:11:21.656Z,27.87
2018-10-01T07:13:50.212Z,29.53
2018-10-01T07:16:18.798Z,28.37
2018-10-01T07:18:47.276Z,29.57
2018-10-01T07:21:15.773Z,29.60
2018-10-01T07:23:44.390Z,28.37
2018-10-01T07:26:12.936Z,28.93
2018-10-01T07:28:41.615Z,29.50
2018-10-01T07:31:10.175Z,28.97
2018-10-01T07:33:38.682Z,30.83
2018-10-01T07:36:07.235Z,28.90
2018-10-01T07:38:36.372Z,27.33
2018-10-01T07:41:04.945Z,26.53
2018-10-01T07:43:33.386Z,25.67
2018-10-01T07:46:01.982Z,25.93
2018-10-01T07:48:30.483Z,23.53
2018-10-01T07:50:59.168Z,23.97
2018-10-01T07:53:27.835Z,23.97
2018-10-01T07:55:56.406Z,23.97
2018-10-01T07:58:25.288Z,22.37
2018-10-01T08:00:53.827Z,22.00
2018-10-01T08:03:22.416Z,23.57
2018-10-01T08:05:51.054Z,21.13
2018-10-01T08:08:19.741Z,21.30
2018-10-01T08:10:48.200Z,20.83
2018-10-01T08:13:16.784Z,20.00
2018-10-01T08:15:45.361Z,19.77
2018-10-01T08:18:14.264Z,21.13
2018-10-01T08:20:42.838Z,18.07
2018-10-01T08:23:11.667Z,19.40
2018-10-01T08:25:40.489Z,18.17
2018-10-01T08:28:09.105Z,18.57
2018-10-01T08:30:37.729Z,18.63
2018-10-01T08:33:06.454Z,19.10
2018-10-01T08:35:35.277Z,19.03
2018-10-01T08:38:04.077Z,19.37
2018-10-01T08:40:33.398Z,19.00
2018-10-01T08:43:01.867Z,17.43
2018-10-01T08:45:30.425Z,18.90
2018-10-01T08:47:59.065Z,18.10
2018-10-01T08:50:33.289Z,20.07
2018-10-01T08:53:38.201Z,19.47
2018-10-01T08:56:06.788Z,18.70
2018-10-01T08:58:35.353Z,18.63
2018-10-01T09:01:03.943Z,18.50
2018-10-01T09:03:32.558Z,19.33
2018-10-01T09:06:01.247Z,18.43
2018-10-01T09:08:29.859Z,19.20
2018-10-01T09:10:58.485Z,18.10
2018-10-01T09:13:27.037Z,19.07
2018-10-01T09:15:55.543Z,17.13
2018-10-01T09:18:24.016Z,16.07
2018-10-01T09:20:52.552Z,15.43
2018-10-01T09:23:21.168Z,14.10
2018-10-01T09:25:49.802Z,13.87
2018-10-01T09:28:18.302Z,14.00
2018-10-01T09:30:46.875Z,13.87
2018-10-01T09:33:15.410Z,15.13
2018-10-01T09:35:44.065Z,14.47
2018-10-01T09:38:12.803Z,15.30
2018-10-01T09:40:41.361Z,14.50
2018-10-01T09:43:09.840Z,14.53
2018-10-01T09:45:38.393Z,14.00
2018-10-01T09:48:07.091Z,13.90
2018-10-01T09:50:35.681Z,14.33
2018-10-01T09:53:04.286Z,14.67
2018-10-01T09:55:32.819Z,13.87
2018-10-01T09:58:01.388Z,13.43
2018-10-01T10:00:36.011Z,13.07
2018-10-01T10:03:05.199Z,12.00
2018-10-01T10:05:34.524Z,12.70
2018-10-01T10:08:03.145Z,12.77
2018-10-01T10:10:31.848Z,12.23
2018-10-01T10:13:00.461Z,12.37
2018-10-01T10:15:29.077Z,11.90
2018-10-01T10:17:57.977Z,11.40
2018-10-01T10:20:26.692Z,10.03
2018-10-01T10:22:55.392Z,10.77
2018-10-01T10:25:23.988Z,11.77
2018-10-01T10:27:52.792Z,10.67
2018-10-01T10:30:21.500Z,10.60
2018-10-01T10:32:50.062Z,10.63
2018-10-01T10:35:18.600Z,10.63
2018-10-01T10:37:47.112Z,9.70
2018-10-01T10:40:15.644Z,9.33
2018-10-01T10:42:44.293Z,9.43
2018-10-01T10:45:12.840Z,9.10
2018-10-01T10:47:41.424Z,9.27
2018-10-01T10:50:10.525Z,8.83
2018-10-01T10:52:39.165Z,8.37
2018-10-01T10:55:08.198Z,8.27
2018-10-01T10:57:36.858Z,8.47
2018-10-01T11:00:05.485Z,8.67
2018-10-01T11:02:34.067Z,8.60
2018-10-01T11:05:02.737Z,8.87
2018-10-01T11:07:31.494Z,9.30
2018-10-01T11:10:00.235Z,9.40
2018-10-01T11:12:28.914Z,8.83
2018-10-01T11:14:57.651Z,9.57
2018-10-01T11:17:26.371Z,9.23
2018-10-01T11:19:55.085Z,8.57
2018-10-01T11:22:23.570Z,9.10
2018-10-01T11:24:52.226Z,8.93
2018-10-01T11:27:21.145Z,8.97
2018-10-01T11:29:49.675Z,9.33
2018-10-01T11:32:18.735Z,9.00
2018-10-01T11:34:47.412Z,8.40
2018-10-01T11:37:16.103Z,8.63
2018-10-01T11:39:44.781Z,8.50
2018-10-01T11:42:13.417Z,8.57
2018-10-01T11:44:41.985Z,8.20
2018-10-01T11:47:10.571Z,8.63
2018-10-01T11:49:39.293Z,8.10
2018-10-01T11:52:09.135Z,8.93
2018-10-01T11:54:37.682Z,8.10
2018-10-01T11:57:06.412Z,8.50
2018-10-01T11:59:34.972Z,8.23
2018-10-01T12:02:03.669Z,7.17
2018-10-01T12:04:32.292Z,7.60
2018-10-01T12:07:00.946Z,7.23
2018-10-01T12:09:29.744Z,7.97
2018-10-01T12:11:58.463Z,7.50
2018-10-01T12:14:27.052Z,7.13
2018-10-01T12:16:55.588Z,6.93
2018-10-01T12:19:24.170Z,6.67
2018-10-01T12:21:52.835Z,7.17
2018-10-01T12:24:21.442Z,6.83
2018-10-01T12:26:50.078Z,6.90
2018-10-01T12:29:18.763Z,6.80
2018-10-01T12:31:47.224Z,7.00
2018-10-01T12:34:15.886Z,6.50
2018-10-01T12:36:44.548Z,7.30
2018-10-01T12:39:13.661Z,6.60
2018-10-01T12:41:42.328Z,7.77
2018-10-01T12:44:11.707Z,7.00
2018-10-01T12:46:40.383Z,6.87
2018-10-01T12:49:09.042Z,8.17
2018-10-01T12:51:37.736Z,8.17
2018-10-01T12:54:06.386Z,8.27
2018-10-01T12:56:34.936Z,7.20
2018-10-01T12:59:03.675Z,7.30
2018-10-01T13:01:32.487Z,7.13
2018-10-01T13:04:01.108Z,7.43
2018-10-01T13:06:29.890Z,7.13
2018-10-01T13:08:58.428Z,7.80
2018-10-01T13:11:27.108Z,6.93
2018-10-01T13:13:55.898Z,7.87
2018-10-01T13:16:24.520Z,7.63
2018-10-01T13:18:53.155Z,7.47
2018-10-01T13:21:21.756Z,8.10
2018-10-01T13:23:50.470Z,7.60
2018-10-01T13:26:19.194Z,8.07
2018-10-01T13:28:47.874Z,7.97
2018-10-01T13:31:16.528Z,7.77
2018-10-01T13:33:45.155Z,8.63
2018-10-01T13:36:14.058Z,8.30
2018-10-01T13:38:42.638Z,7.63
2018-10-01T13:41:11.241Z,7.47
2018-10-01T13:43:39.899Z,8.47
2018-10-01T13:46:08.514Z,8.10
2018-10-01T13:48:37.572Z,8.43
2018-10-01T13:51:06.175Z,9.60
2018-10-01T13:53:34.771Z,9.63
2018-10-01T13:56:03.473Z,8.37
2018-10-01T13:58:33.591Z,8.63
2018-10-01T14:01:02.359Z,9.87
2018-10-01T14:03:31.069Z,8.60
2018-10-01T14:05:59.870Z,9.80
2018-10-01T14:08:29.126Z,11.00
2018-10-01T14:10:57.816Z,9.60
2018-10-01T14:13:26.836Z,10.53
2018-10-01T14:15:55.577Z,11.63
2018-10-01T14:18:24.640Z,12.43
2018-10-01T14:20:53.341Z,13.33
2018-10-01T14:23:22.494Z,13.63
2018-10-01T14:25:51.160Z,14.33
2018-10-01T14:28:20.054Z,14.00
2018-10-01T14:30:48.760Z,13.63
2018-10-01T14:33:17.383Z,14.30
2018-10-01T14:35:45.931Z,14.40
2018-10-01T14:38:14.597Z,14.60
2018-10-01T14:40:43.512Z,14.17
2018-10-01T14:43:12.161Z,14.43
2018-10-01T14:45:40.814Z,14.30
2018-10-01T14:48:09.683Z,13.90
2018-10-01T14:50:38.411Z,14.10
2018-10-01T14:53:07.072Z,13.17
2018-10-01T14:55:35.719Z,13.70
2018-10-01T14:58:04.733Z,15.07
2018-10-01T15:00:33.647Z,14.00
2018-10-01T15:03:02.064Z,14.20
2018-10-01T15:05:30.893Z,14.00
2018-10-01T15:07:59.522Z,13.30
2018-10-01T15:10:28.091Z,13.93
2018-10-01T15:12:56.707Z,21.33
2018-10-01T15:15:25.272Z,12.47
2018-10-01T15:17:54.006Z,19.13
2018-10-01T15:20:22.739Z,15.90
2018-10-01T15:22:51.523Z,21.67
2018-10-01T15:25:20.238Z,15.00
2018-10-01T15:27:48.952Z,14.60
2018-10-01T15:30:17.590Z,10.43
2018-10-01T15:32:46.435Z,10.00
2018-10-01T15:35:15.896Z,9.80
2018-10-01T15:37:45.020Z,8.03
2018-10-01T15:40:13.892Z,7.50
2018-10-01T15:42:42.579Z,7.20
2018-10-01T15:45:11.361Z,6.97
2018-10-01T15:47:39.977Z,6.80
2018-10-01T15:50:08.552Z,7.40
2018-10-01T15:52:37.413Z,6.53
2018-10-01T15:55:06.225Z,6.77
2018-10-01T15:57:35.221Z,7.20
2018-10-01T16:00:04.758Z,6.60
2018-10-01T16:02:33.525Z,6.33
2018-10-01T16:05:02.229Z,5.73
2018-10-01T16:07:31.141Z,6.50
2018-10-01T16:09:59.854Z,6.33
2018-10-01T16:12:28.611Z,6.60
2018-10-01T16:14:57.411Z,6.70
2018-10-01T16:17:28.409Z,6.50
2018-10-01T16:19:56.997Z,5.90
2018-10-01T16:22:25.792Z,7.37
2018-10-01T16:24:54.630Z,6.37
2018-10-01T16:27:23.512Z,6.23
2018-10-01T16:29:52.351Z,6.30
2018-10-01T16:32:21.339Z,5.87
2018-10-01T16:34:50.346Z,5.70
2018-10-01T16:37:19.316Z,5.80
2018-10-01T16:39:48.223Z,5.70
2018-10-01T16:42:17.463Z,5.40
2018-10-01T16:44:46.142Z,5.20
2018-10-01T16:47:14.951Z,4.83
2018-10-01T16:49:43.731Z,5.20
2018-10-01T16:52:14.017Z,4.97
2018-10-01T16:54:42.943Z,5.13
2018-10-01T16:57:11.651Z,3.87
2018-10-01T16:59:40.840Z,3.50
2018-10-01T17:02:09.975Z,4.00
2018-10-01T17:04:39.050Z,3.33
2018-10-01T17:07:08.166Z,2.90
2018-10-01T17:09:37.087Z,3.60
2018-10-01T17:12:06.106Z,3.40
2018-10-01T17:14:35.523Z,3.47
2018-10-01T17:17:04.713Z,2.97
2018-10-01T17:19:34.064Z,2.80
2018-10-01T17:22:03.667Z,3.43
2018-10-01T17:24:33.069Z,3.37
2018-10-01T17:27:02.200Z,3.40
2018-10-01T17:29:31.635Z,7.13
2018-10-01T17:32:01.054Z,3.50
2018-10-01T17:34:30.693Z,4.57
2018-10-01T17:37:00.094Z,3.23
2018-10-01T17:39:29.850Z,2.90
2018-10-01T17:41:58.861Z,2.80
2018-10-01T17:44:28.101Z,3.43
2018-10-01T17:46:57.049Z,2.70
2018-10-01T17:49:26.057Z,3.17
2018-10-01T17:51:55.166Z,3.30
2018-10-01T17:54:24.535Z,3.03
2018-10-01T17:56:54.379Z,4.53
2018-10-01T17:59:23.330Z,3.53
2018-10-01T18:01:52.505Z,3.00
2018-10-01T18:04:21.430Z,4.03
2018-10-01T18:06:50.466Z,3.43
2018-10-01T18:09:19.509Z,3.00
2018-10-01T18:11:48.885Z,4.60
2018-10-01T18:14:17.957Z,10.13
2018-10-01T18:16:47.168Z,3.97
2018-10-01T18:19:16.514Z,3.40
2018-10-01T18:21:45.504Z,4.23
2018-10-01T18:24:14.648Z,3.27
2018-10-01T18:26:43.493Z,4.07
2018-10-01T18:29:12.726Z,3.43
2018-10-01T18:31:41.843Z,3.50
2018-10-01T18:34:11.072Z,3.97
2018-10-01T18:36:40.269Z,3.50
2018-10-01T18:39:15.314Z,4.30
2018-10-01T18:41:44.971Z,4.90
2018-10-01T18:44:13.909Z,4.57
2018-10-01T18:46:43.245Z,4.20
2018-10-01T18:49:12.303Z,4.33
2018-10-01T18:51:45.044Z,6.07
2018-10-01T18:54:14.928Z,4.53
2018-10-01T18:56:44.751Z,4.40
2018-10-01T18:59:14.025Z,6.37
2018-10-01T19:01:43.593Z,17.30
2018-10-01T19:04:13.877Z,6.47
2018-10-01T19:06:43.497Z,19.13
2018-10-01T19:09:13.326Z,4.93
2018-10-01T19:11:42.808Z,14.27
2018-10-01T19:14:12.255Z,21.63
2018-10-01T19:16:41.689Z,7.63
2018-10-01T19:19:10.573Z,5.57
2018-10-01T19:21:39.476Z,7.37
2018-10-01T19:24:08.933Z,5.90
2018-10-01T19:26:38.604Z,5.43
2018-10-01T19:29:08.105Z,5.30
2018-10-01T19:31:37.457Z,5.50
2018-10-01T19:34:07.276Z,7.07
2018-10-01T19:36:36.428Z,5.50
2018-10-01T19:39:08.519Z,8.13
2018-10-01T19:41:38.663Z,6.00
2018-10-01T19:44:07.798Z,7.03
2018-10-01T19:46:37.189Z,6.07
2018-10-01T19:49:06.618Z,7.43
2018-10-01T19:51:36.227Z,7.67
2018-10-01T19:54:05.785Z,5.20
2018-10-01T19:56:35.124Z,6.37
2018-10-01T19:59:04.299Z,5.40
2018-10-01T20:01:33.431Z,5.43
2018-10-01T20:04:02.552Z,5.93
2018-10-01T20:06:31.320Z,5.50
2018-10-01T20:09:01.323Z,5.67
2018-10-01T20:11:30.920Z,5.80
2018-10-01T20:13:59.816Z,5.37
2018-10-01T20:16:28.787Z,5.27
2018-10-01T20:18:57.957Z,5.60
2018-10-01T20:21:26.827Z,5.20
2018-10-01T20:23:57.787Z,5.00
2018-10-01T20:26:26.879Z,5.53
2018-10-01T20:28:56.055Z,4.50
2018-10-01T20:31:24.646Z,4.53
2018-10-01T20:33:53.475Z,4.57
2018-10-01T20:36:22.295Z,4.50
2018-10-01T20:38:51.173Z,6.73
2018-10-01T20:41:20.941Z,5.47
2018-10-01T20:43:49.640Z,4.83
2018-10-01T20:46:18.262Z,6.00
2018-10-01T20:48:46.922Z,5.40
2018-10-01T20:51:15.552Z,6.30
2018-10-01T20:53:44.225Z,5.80
2018-10-01T20:56:12.891Z,6.60
2018-10-01T20:58:41.572Z,6.47
2018-10-01T21:01:10.249Z,5.30
2018-10-01T21:03:38.837Z,6.60
2018-10-01T21:06:07.422Z,6.37
2018-10-01T21:08:36.308Z,5.73
2018-10-01T21:11:05.007Z,5.07
2018-10-01T21:13:33.669Z,5.27
2018-10-01T21:16:02.238Z,4.73
2018-10-01T21:18:30.718Z,5.03
2018-10-01T21:20:59.304Z,5.40
2018-10-01T21:23:27.905Z,5.97
2018-10-01T21:25:56.647Z,5.60
2018-10-01T21:28:25.160Z,5.90
2018-10-01T21:30:53.716Z,5.70
2018-10-01T21:33:22.298Z,5.83
2018-10-01T21:35:51.019Z,5.53
2018-10-01T21:38:19.584Z,6.17
2018-10-01T21:40:48.390Z,5.73
2018-10-01T21:43:17.002Z,6.10
2018-10-01T21:45:46.153Z,6.30
2018-10-01T21:48:15.576Z,6.13
2018-10-01T21:50:44.223Z,6.20
2018-10-01T21:53:14.629Z,6.10
2018-10-01T21:55:43.402Z,6.00
2018-10-01T21:58:12.178Z,5.93
2018-10-01T22:00:46.318Z,6.13
2018-10-01T22:03:15.030Z,6.57
2018-10-01T22:05:43.611Z,6.37
2018-10-01T22:08:13.105Z,6.13
2018-10-01T22:10:41.903Z,5.73
2018-10-01T22:13:10.512Z,6.37
2018-10-01T22:15:45.200Z,6.20
2018-10-01T22:18:15.758Z,6.33
2018-10-01T22:20:44.689Z,7.20
2018-10-01T22:23:13.671Z,6.30
2018-10-01T22:25:42.265Z,7.27
2018-10-01T22:28:11.205Z,6.53
2018-10-01T22:30:40.476Z,6.77
2018-10-01T22:33:09.085Z,6.30
2018-10-01T22:35:37.679Z,6.83
2018-10-01T22:38:06.196Z,7.23
2018-10-01T22:40:34.743Z,6.63
2018-10-01T22:43:03.242Z,7.10
2018-10-01T22:45:31.715Z,6.83
2018-10-01T22:48:00.252Z,7.00
2018-10-01T22:50:28.819Z,7.00
2018-10-01T22:52:57.385Z,6.80
2018-10-01T22:55:25.971Z,7.53
2018-10-01T22:57:54.602Z,6.50
2018-10-01T23:00:23.265Z,6.93
2018-10-01T23:02:51.866Z,6.30
2018-10-01T23:05:20.399Z,7.40
2018-10-01T23:07:49.075Z,6.60
2018-10-01T23:10:17.613Z,6.80
2018-10-01T23:12:46.095Z,6.67
2018-10-01T23:15:14.615Z,6.13
2018-10-01T23:17:43.194Z,5.90
2018-10-01T23:20:11.725Z,6.23
2018-10-01T23:22:40.368Z,6.07
2018-10-01T23:25:08.845Z,6.37
2018-10-01T23:27:37.410Z,5.57
2018-10-01T23:30:05.952Z,5.47
2018-10-01T23:32:34.445Z,4.90
2018-10-01T23:35:02.957Z,4.90
2018-10-01T23:37:31.524Z,5.20
2018-10-01T23:40:00.132Z,5.10
2018-10-01T23:42:28.646Z,4.50
2018-10-01T23:44:57.309Z,4.10
2018-10-01T23:47:25.760Z,4.50
2018-10-01T23:49:54.307Z,4.50
2018-10-01T23:52:22.751Z,4.20
2018-10-01T23:54:51.247Z,3.70
2018-10-01T23:57:19.858Z,3.97
2018-10-01T23:59:48.479Z,4.20
